sensor_id;sensor_type;location;lat;lon;timestamp;pressure;altitude;pressure_sealevel;temperature;humidity
24620;BME280;12763;55.802;37.404;2023-04-16T00:02:10;101009.63;;;7.50;30.65
24620;BME280;12763;55.802;37.404;2023-04-16T00:04:36;101011.72;;;7.56;30.50
24620;BME280;12763;55.802;37.404;2023-04-16T00:07:02;101013.06;;;7.52;30.61
24620;BME280;12763;55.802;37.404;2023-04-16T00:09:28;101019.22;;;7.46;30.86
24620;BME280;12763;55.802;37.404;2023-04-16T00:11:55;101016.72;;;7.60;30.82
24620;BME280;12763;55.802;37.404;2023-04-16T00:14:21;101019.97;;;7.56;30.36
24620;BME280;12763;55.802;37.404;2023-04-16T00:16:47;101021.28;;;7.44;31.20
24620;BME280;12763;55.802;37.404;2023-04-16T00:19:12;101019.25;;;7.54;30.69
24620;BME280;12763;55.802;37.404;2023-04-16T00:21:38;101023.00;;;7.45;31.23
24620;BME280;12763;55.802;37.404;2023-04-16T00:24:04;101018.03;;;7.48;31.15
24620;BME280;12763;55.802;37.404;2023-04-16T00:26:30;101021.28;;;7.44;31.10
24620;BME280;12763;55.802;37.404;2023-04-16T00:28:56;101011.78;;;7.38;31.16
24620;BME280;12763;55.802;37.404;2023-04-16T00:31:29;101021.91;;;7.38;31.38
24620;BME280;12763;55.802;37.404;2023-04-16T00:33:56;101018.81;;;7.33;31.48
24620;BME280;12763;55.802;37.404;2023-04-16T00:36:23;101019.13;;;7.30;31.71
24620;BME280;12763;55.802;37.404;2023-04-16T00:38:49;101025.44;;;7.22;31.69
24620;BME280;12763;55.802;37.404;2023-04-16T00:41:15;101022.19;;;7.27;31.79
24620;BME280;12763;55.802;37.404;2023-04-16T00:43:42;101023.22;;;7.26;32.04
24620;BME280;12763;55.802;37.404;2023-04-16T00:46:08;101021.00;;;7.29;32.03
24620;BME280;12763;55.802;37.404;2023-04-16T00:48:38;101019.94;;;7.22;32.35
24620;BME280;12763;55.802;37.404;2023-04-16T00:51:05;101019.38;;;7.19;32.20
24620;BME280;12763;55.802;37.404;2023-04-16T00:53:32;101024.13;;;7.08;32.21
24620;BME280;12763;55.802;37.404;2023-04-16T00:56:01;101024.00;;;7.18;31.71
24620;BME280;12763;55.802;37.404;2023-04-16T00:58:29;101022.78;;;7.13;32.38
24620;BME280;12763;55.802;37.404;2023-04-16T01:00:55;101015.22;;;7.06;32.41
24620;BME280;12763;55.802;37.404;2023-04-16T01:03:22;101024.38;;;7.15;32.19
24620;BME280;12763;55.802;37.404;2023-04-16T01:05:48;101019.13;;;7.04;31.96
24620;BME280;12763;55.802;37.404;2023-04-16T01:08:19;101016.22;;;7.05;31.99
24620;BME280;12763;55.802;37.404;2023-04-16T01:10:45;101017.63;;;7.09;32.07
24620;BME280;12763;55.802;37.404;2023-04-16T01:13:11;101022.47;;;7.16;31.97
24620;BME280;12763;55.802;37.404;2023-04-16T01:15:37;101015.59;;;7.12;32.17
24620;BME280;12763;55.802;37.404;2023-04-16T01:18:13;101027.63;;;7.19;32.25
24620;BME280;12763;55.802;37.404;2023-04-16T01:20:39;101013.28;;;7.07;31.89
24620;BME280;12763;55.802;37.404;2023-04-16T01:23:05;101011.59;;;7.06;31.90
24620;BME280;12763;55.802;37.404;2023-04-16T01:25:31;101012.16;;;7.09;32.17
24620;BME280;12763;55.802;37.404;2023-04-16T01:27:57;101015.53;;;7.03;32.46
24620;BME280;12763;55.802;37.404;2023-04-16T01:30:24;101018.59;;;7.00;32.47
24620;BME280;12763;55.802;37.404;2023-04-16T01:33:14;101015.84;;;7.00;31.85
24620;BME280;12763;55.802;37.404;2023-04-16T01:35:40;101012.28;;;7.08;32.27
24620;BME280;12763;55.802;37.404;2023-04-16T01:38:07;101012.97;;;7.10;32.00
24620;BME280;12763;55.802;37.404;2023-04-16T01:40:34;101008.25;;;7.20;31.80
24620;BME280;12763;55.802;37.404;2023-04-16T01:43:01;101014.13;;;7.25;31.65
24620;BME280;12763;55.802;37.404;2023-04-16T01:45:27;101014.28;;;7.24;31.86
24620;BME280;12763;55.802;37.404;2023-04-16T01:47:53;101005.56;;;7.28;31.81
24620;BME280;12763;55.802;37.404;2023-04-16T01:50:20;101004.38;;;7.31;31.64
24620;BME280;12763;55.802;37.404;2023-04-16T01:52:47;101005.56;;;7.28;31.85
24620;BME280;12763;55.802;37.404;2023-04-16T01:55:13;101015.47;;;7.21;31.68
24620;BME280;12763;55.802;37.404;2023-04-16T01:57:39;101012.19;;;7.18;32.09
24620;BME280;12763;55.802;37.404;2023-04-16T02:00:05;101013.75;;;7.20;31.54
24620;BME280;12763;55.802;37.404;2023-04-16T02:02:45;101017.84;;;7.16;31.90
24620;BME280;12763;55.802;37.404;2023-04-16T02:05:14;101017.13;;;7.14;32.09
24620;BME280;12763;55.802;37.404;2023-04-16T02:07:40;101015.59;;;7.12;31.86
24620;BME280;12763;55.802;37.404;2023-04-16T02:10:06;101017.94;;;7.06;32.43
24620;BME280;12763;55.802;37.404;2023-04-16T02:12:33;101009.53;;;7.08;32.04
24620;BME280;12763;55.802;37.404;2023-04-16T02:15:00;101017.41;;;7.03;32.61
24620;BME280;12763;55.802;37.404;2023-04-16T02:17:32;101013.19;;;6.91;32.64
24620;BME280;12763;55.802;37.404;2023-04-16T02:20:08;101011.16;;;6.93;32.94
24620;BME280;12763;55.802;37.404;2023-04-16T02:22:40;101016.00;;;6.99;32.41
24620;BME280;12763;55.802;37.404;2023-04-16T02:25:08;101018.22;;;6.95;32.98
24620;BME280;12763;55.802;37.404;2023-04-16T02:27:34;101022.34;;;6.99;33.11
24620;BME280;12763;55.802;37.404;2023-04-16T02:30:14;101018.59;;;7.00;32.97
24620;BME280;12763;55.802;37.404;2023-04-16T02:32:40;101014.66;;;7.03;32.92
24620;BME280;12763;55.802;37.404;2023-04-16T02:35:06;101010.31;;;6.92;33.25
24620;BME280;12763;55.802;37.404;2023-04-16T02:37:32;100995.34;;;6.87;33.16
24620;BME280;12763;55.802;37.404;2023-04-16T02:39:58;101010.56;;;6.81;33.82
24620;BME280;12763;55.802;37.404;2023-04-16T02:42:23;101014.38;;;6.88;33.11
24620;BME280;12763;55.802;37.404;2023-04-16T02:44:49;101012.97;;;6.84;33.31
24620;BME280;12763;55.802;37.404;2023-04-16T02:47:15;101013.34;;;6.89;33.43
24620;BME280;12763;55.802;37.404;2023-04-16T02:49:41;101013.66;;;6.86;33.36
24620;BME280;12763;55.802;37.404;2023-04-16T02:52:07;101019.53;;;6.91;33.66
24620;BME280;12763;55.802;37.404;2023-04-16T02:54:32;101032.56;;;6.89;34.00
24620;BME280;12763;55.802;37.404;2023-04-16T02:56:58;101013.84;;;6.85;33.62
24620;BME280;12763;55.802;37.404;2023-04-16T02:59:24;101023.41;;;6.81;34.08
24620;BME280;12763;55.802;37.404;2023-04-16T03:01:50;101015.66;;;6.76;33.92
24620;BME280;12763;55.802;37.404;2023-04-16T03:04:16;101030.63;;;6.82;33.98
24620;BME280;12763;55.802;37.404;2023-04-16T03:06:42;101028.34;;;6.77;33.69
24620;BME280;12763;55.802;37.404;2023-04-16T03:09:07;101031.69;;;6.89;33.88
24620;BME280;12763;55.802;37.404;2023-04-16T03:11:33;101028.78;;;6.90;33.86
24620;BME280;12763;55.802;37.404;2023-04-16T03:13:59;101031.94;;;6.95;33.56
24620;BME280;12763;55.802;37.404;2023-04-16T03:16:25;101026.97;;;6.99;33.52
24620;BME280;12763;55.802;37.404;2023-04-16T03:18:51;101027.19;;;7.05;33.62
24620;BME280;12763;55.802;37.404;2023-04-16T03:21:17;101026.66;;;7.02;33.44
24620;BME280;12763;55.802;37.404;2023-04-16T03:23:43;101024.78;;;7.02;33.06
24620;BME280;12763;55.802;37.404;2023-04-16T03:26:09;101031.28;;;7.01;33.58
24620;BME280;12763;55.802;37.404;2023-04-16T03:28:34;101035.50;;;7.14;33.71
24620;BME280;12763;55.802;37.404;2023-04-16T03:31:00;101038.94;;;7.16;33.40
24620;BME280;12763;55.802;37.404;2023-04-16T03:33:27;101026.56;;;7.12;33.39
24620;BME280;12763;55.802;37.404;2023-04-16T03:35:56;101030.91;;;7.22;33.60
24620;BME280;12763;55.802;37.404;2023-04-16T03:38:24;101024.78;;;7.28;32.99
24620;BME280;12763;55.802;37.404;2023-04-16T03:40:53;101027.69;;;7.27;33.27
24620;BME280;12763;55.802;37.404;2023-04-16T03:43:19;101031.84;;;7.31;33.17
24620;BME280;12763;55.802;37.404;2023-04-16T03:45:46;101025.56;;;7.46;32.75
24620;BME280;12763;55.802;37.404;2023-04-16T03:48:12;101030.19;;;7.46;33.12
24620;BME280;12763;55.802;37.404;2023-04-16T03:50:38;101032.34;;;7.60;32.94
24620;BME280;12763;55.802;37.404;2023-04-16T03:53:06;101033.84;;;7.54;33.05
24620;BME280;12763;55.802;37.404;2023-04-16T03:55:34;101032.06;;;7.71;32.86
24620;BME280;12763;55.802;37.404;2023-04-16T03:58:01;101034.47;;;7.74;32.68
24620;BME280;12763;55.802;37.404;2023-04-16T04:00:28;101037.59;;;7.79;32.33
24620;BME280;12763;55.802;37.404;2023-04-16T04:03:05;101042.16;;;8.04;32.45
24620;BME280;12763;55.802;37.404;2023-04-16T04:05:35;101040.16;;;8.14;32.61
24620;BME280;12763;55.802;37.404;2023-04-16T04:08:02;101036.94;;;8.27;32.24
24620;BME280;12763;55.802;37.404;2023-04-16T04:10:33;101034.69;;;8.22;32.20
24620;BME280;12763;55.802;37.404;2023-04-16T04:13:02;101041.59;;;8.35;32.14
24620;BME280;12763;55.802;37.404;2023-04-16T04:15:28;101035.09;;;8.44;31.80
24620;BME280;12763;55.802;37.404;2023-04-16T04:17:54;101032.16;;;8.45;32.00
24620;BME280;12763;55.802;37.404;2023-04-16T04:20:22;101028.94;;;8.58;31.95
24620;BME280;12763;55.802;37.404;2023-04-16T04:22:49;101033.75;;;8.48;31.76
24620;BME280;12763;55.802;37.404;2023-04-16T04:25:16;101024.78;;;8.62;31.41
24620;BME280;12763;55.802;37.404;2023-04-16T04:27:42;101024.44;;;8.65;31.59
24620;BME280;12763;55.802;37.404;2023-04-16T04:30:09;101032.91;;;8.63;31.36
24620;BME280;12763;55.802;37.404;2023-04-16T04:32:36;101026.19;;;8.66;31.14
24620;BME280;12763;55.802;37.404;2023-04-16T04:35:02;101030.25;;;8.38;31.12
24620;BME280;12763;55.802;37.404;2023-04-16T04:37:30;101027.50;;;8.38;31.57
24620;BME280;12763;55.802;37.404;2023-04-16T04:39:57;101033.03;;;8.46;31.28
24620;BME280;12763;55.802;37.404;2023-04-16T04:42:23;101026.34;;;8.56;31.03
24620;BME280;12763;55.802;37.404;2023-04-16T04:44:49;101029.44;;;8.53;31.14
24620;BME280;12763;55.802;37.404;2023-04-16T04:47:15;101032.38;;;8.60;31.14
24620;BME280;12763;55.802;37.404;2023-04-16T04:49:41;101040.63;;;8.68;31.03
24620;BME280;12763;55.802;37.404;2023-04-16T04:52:07;101033.91;;;8.86;30.90
24620;BME280;12763;55.802;37.404;2023-04-16T04:54:33;101040.81;;;8.99;30.74
24620;BME280;12763;55.802;37.404;2023-04-16T04:56:59;101030.28;;;9.26;30.55
24620;BME280;12763;55.802;37.404;2023-04-16T04:59:27;101027.88;;;9.31;30.63
24620;BME280;12763;55.802;37.404;2023-04-16T05:01:53;101035.38;;;9.62;30.20
24620;BME280;12763;55.802;37.404;2023-04-16T05:04:19;101029.00;;;9.61;29.80
24620;BME280;12763;55.802;37.404;2023-04-16T05:06:45;101024.31;;;9.70;30.04
24620;BME280;12763;55.802;37.404;2023-04-16T05:09:11;101032.13;;;9.58;30.17
24620;BME280;12763;55.802;37.404;2023-04-16T05:11:37;101021.59;;;9.62;30.31
24620;BME280;12763;55.802;37.404;2023-04-16T05:14:03;101031.59;;;9.63;30.25
24620;BME280;12763;55.802;37.404;2023-04-16T05:16:29;101031.38;;;9.72;29.97
24620;BME280;12763;55.802;37.404;2023-04-16T05:18:55;101030.19;;;9.75;30.05
24620;BME280;12763;55.802;37.404;2023-04-16T05:21:23;101040.91;;;9.62;30.08
24620;BME280;12763;55.802;37.404;2023-04-16T05:23:49;101039.50;;;9.74;29.85
24620;BME280;12763;55.802;37.404;2023-04-16T05:26:15;101029.09;;;9.84;29.82
24620;BME280;12763;55.802;37.404;2023-04-16T05:28:40;101028.41;;;9.90;30.16
24620;BME280;12763;55.802;37.404;2023-04-16T05:31:06;101034.63;;;9.84;30.17
24620;BME280;12763;55.802;37.404;2023-04-16T05:33:32;101032.91;;;9.83;29.90
24620;BME280;12763;55.802;37.404;2023-04-16T05:35:58;101023.75;;;9.90;29.91
24620;BME280;12763;55.802;37.404;2023-04-16T05:38:24;101036.00;;;9.88;29.85
24620;BME280;12763;55.802;37.404;2023-04-16T05:40:52;101032.84;;;9.99;29.57
24620;BME280;12763;55.802;37.404;2023-04-16T05:43:17;101031.28;;;10.04;29.59
24620;BME280;12763;55.802;37.404;2023-04-16T05:45:43;101020.34;;;10.27;29.33
24620;BME280;12763;55.802;37.404;2023-04-16T05:48:09;101018.28;;;10.52;28.70
24620;BME280;12763;55.802;37.404;2023-04-16T05:50:35;101011.72;;;10.76;28.69
24620;BME280;12763;55.802;37.404;2023-04-16T05:53:05;101010.34;;;10.72;28.41
24620;BME280;12763;55.802;37.404;2023-04-16T05:55:31;100998.31;;;10.87;28.37
24620;BME280;12763;55.802;37.404;2023-04-16T05:57:57;101004.84;;;11.09;28.08
24620;BME280;12763;55.802;37.404;2023-04-16T06:00:23;101007.19;;;11.20;27.97
24620;BME280;12763;55.802;37.404;2023-04-16T06:02:49;101006.19;;;11.13;27.99
24620;BME280;12763;55.802;37.404;2023-04-16T06:05:16;101011.66;;;11.36;27.82
24620;BME280;12763;55.802;37.404;2023-04-16T06:07:42;101005.59;;;11.55;27.45
24620;BME280;12763;55.802;37.404;2023-04-16T06:10:08;101010.66;;;11.51;27.27
24620;BME280;12763;55.802;37.404;2023-04-16T06:12:34;101001.34;;;11.82;27.26
24620;BME280;12763;55.802;37.404;2023-04-16T06:15:00;101007.59;;;12.05;27.05
24620;BME280;12763;55.802;37.404;2023-04-16T06:17:26;101012.38;;;12.11;26.83
24620;BME280;12763;55.802;37.404;2023-04-16T06:19:52;101000.59;;;12.23;26.77
24620;BME280;12763;55.802;37.404;2023-04-16T06:22:18;101000.69;;;12.30;26.20
24620;BME280;12763;55.802;37.404;2023-04-16T06:24:43;101002.16;;;12.47;25.96
24620;BME280;12763;55.802;37.404;2023-04-16T06:27:09;101006.28;;;12.72;25.75
24620;BME280;12763;55.802;37.404;2023-04-16T06:29:35;101005.38;;;12.86;26.07
24620;BME280;12763;55.802;37.404;2023-04-16T06:32:01;101001.53;;;12.87;25.80
24620;BME280;12763;55.802;37.404;2023-04-16T06:34:28;100995.63;;;13.12;25.80
24620;BME280;12763;55.802;37.404;2023-04-16T06:36:54;101004.53;;;12.92;25.55
24620;BME280;12763;55.802;37.404;2023-04-16T06:39:20;101000.41;;;12.82;25.27
24620;BME280;12763;55.802;37.404;2023-04-16T06:41:47;100992.16;;;13.10;24.99
24620;BME280;12763;55.802;37.404;2023-04-16T06:44:13;100983.84;;;12.88;24.84
24620;BME280;12763;55.802;37.404;2023-04-16T06:46:39;100988.59;;;12.94;24.90
24620;BME280;12763;55.802;37.404;2023-04-16T06:49:06;100981.94;;;13.10;24.51
24620;BME280;12763;55.802;37.404;2023-04-16T06:51:32;100981.75;;;13.12;24.19
24620;BME280;12763;55.802;37.404;2023-04-16T06:53:58;100977.66;;;13.08;24.39
24620;BME280;12763;55.802;37.404;2023-04-16T06:56:24;100978.88;;;13.05;24.37
24620;BME280;12763;55.802;37.404;2023-04-16T06:58:50;100990.84;;;13.06;24.11
24620;BME280;12763;55.802;37.404;2023-04-16T07:01:17;100988.84;;;13.00;23.84
24620;BME280;12763;55.802;37.404;2023-04-16T07:03:43;100983.94;;;13.23;23.82
24620;BME280;12763;55.802;37.404;2023-04-16T07:06:09;100986.28;;;13.47;23.61
24620;BME280;12763;55.802;37.404;2023-04-16T07:08:35;100986.44;;;13.39;23.66
24620;BME280;12763;55.802;37.404;2023-04-16T07:11:01;100992.94;;;13.52;23.55
24620;BME280;12763;55.802;37.404;2023-04-16T07:13:27;100985.47;;;13.53;23.06
24620;BME280;12763;55.802;37.404;2023-04-16T07:15:53;100985.16;;;13.76;22.96
24620;BME280;12763;55.802;37.404;2023-04-16T07:18:19;100986.47;;;13.45;23.12
24620;BME280;12763;55.802;37.404;2023-04-16T07:20:46;100985.38;;;13.40;23.60
24620;BME280;12763;55.802;37.404;2023-04-16T07:23:12;100996.34;;;13.54;23.12
24620;BME280;12763;55.802;37.404;2023-04-16T07:25:38;100991.69;;;13.62;23.24
24620;BME280;12763;55.802;37.404;2023-04-16T07:28:04;100987.25;;;13.33;23.37
24620;BME280;12763;55.802;37.404;2023-04-16T07:30:30;100988.44;;;13.51;23.31
24620;BME280;12763;55.802;37.404;2023-04-16T07:33:01;100982.31;;;13.63;23.47
24620;BME280;12763;55.802;37.404;2023-04-16T07:35:27;100993.81;;;13.60;23.58
24620;BME280;12763;55.802;37.404;2023-04-16T07:37:53;100979.19;;;13.72;23.17
24620;BME280;12763;55.802;37.404;2023-04-16T07:40:20;100988.44;;;13.86;23.54
24620;BME280;12763;55.802;37.404;2023-04-16T07:42:46;100985.91;;;13.91;23.61
24620;BME280;12763;55.802;37.404;2023-04-16T07:45:12;100979.72;;;13.95;23.00
24620;BME280;12763;55.802;37.404;2023-04-16T07:47:38;100981.41;;;13.83;23.25
24620;BME280;12763;55.802;37.404;2023-04-16T07:50:04;100976.84;;;13.76;23.18
24620;BME280;12763;55.802;37.404;2023-04-16T07:52:31;100974.53;;;13.79;23.10
24620;BME280;12763;55.802;37.404;2023-04-16T07:54:57;100974.81;;;13.97;23.03
24620;BME280;12763;55.802;37.404;2023-04-16T07:57:23;100968.41;;;13.90;22.81
24620;BME280;12763;55.802;37.404;2023-04-16T07:59:48;100969.97;;;13.65;22.77
24620;BME280;12763;55.802;37.404;2023-04-16T08:02:15;100967.53;;;13.83;22.56
24620;BME280;12763;55.802;37.404;2023-04-16T08:04:42;100971.84;;;13.99;22.79
24620;BME280;12763;55.802;37.404;2023-04-16T08:07:08;100968.44;;;14.03;22.86
24620;BME280;12763;55.802;37.404;2023-04-16T08:09:34;100965.69;;;14.03;22.91
24620;BME280;12763;55.802;37.404;2023-04-16T08:12:03;100967.22;;;14.12;22.87
24620;BME280;12763;55.802;37.404;2023-04-16T08:14:29;100968.56;;;14.30;23.04
24620;BME280;12763;55.802;37.404;2023-04-16T08:16:55;100968.53;;;14.23;23.05
24620;BME280;12763;55.802;37.404;2023-04-16T08:19:21;100965.16;;;14.28;22.98
24620;BME280;12763;55.802;37.404;2023-04-16T08:21:47;100965.22;;;14.41;22.74
24620;BME280;12763;55.802;37.404;2023-04-16T08:24:21;100960.94;;;14.45;22.84
24620;BME280;12763;55.802;37.404;2023-04-16T08:26:47;100951.56;;;14.46;23.03
24620;BME280;12763;55.802;37.404;2023-04-16T08:29:13;100949.69;;;14.66;22.64
24620;BME280;12763;55.802;37.404;2023-04-16T08:31:39;100940.47;;;14.65;22.56
24620;BME280;12763;55.802;37.404;2023-04-16T08:34:05;100944.75;;;14.94;22.38
24620;BME280;12763;55.802;37.404;2023-04-16T08:36:31;100942.19;;;15.25;22.20
24620;BME280;12763;55.802;37.404;2023-04-16T08:38:57;100943.06;;;15.06;22.45
24620;BME280;12763;55.802;37.404;2023-04-16T08:41:23;100940.28;;;15.13;21.78
24620;BME280;12763;55.802;37.404;2023-04-16T08:43:54;100929.56;;;15.16;21.69
24620;BME280;12763;55.802;37.404;2023-04-16T08:46:23;100932.13;;;15.38;21.98
24620;BME280;12763;55.802;37.404;2023-04-16T08:48:53;100930.13;;;15.84;21.67
24620;BME280;12763;55.802;37.404;2023-04-16T08:51:21;100937.78;;;15.95;21.53
24620;BME280;12763;55.802;37.404;2023-04-16T08:53:51;100917.22;;;15.96;21.40
24620;BME280;12763;55.802;37.404;2023-04-16T08:56:20;100915.31;;;15.90;21.55
24620;BME280;12763;55.802;37.404;2023-04-16T08:58:49;100919.94;;;15.52;20.80
24620;BME280;12763;55.802;37.404;2023-04-16T09:01:16;100923.31;;;15.60;20.78
24620;BME280;12763;55.802;37.404;2023-04-16T09:03:46;100916.44;;;15.76;20.45
24620;BME280;12763;55.802;37.404;2023-04-16T09:06:12;100917.66;;;15.93;20.28
24620;BME280;12763;55.802;37.404;2023-04-16T09:08:38;100909.84;;;16.15;20.27
24620;BME280;12763;55.802;37.404;2023-04-16T09:11:05;100913.13;;;16.43;19.96
24620;BME280;12763;55.802;37.404;2023-04-16T09:13:31;100911.25;;;16.30;20.11
24620;BME280;12763;55.802;37.404;2023-04-16T09:15:57;100916.22;;;16.28;20.33
24620;BME280;12763;55.802;37.404;2023-04-16T09:18:24;100908.56;;;16.17;20.11
24620;BME280;12763;55.802;37.404;2023-04-16T09:20:50;100910.72;;;16.09;20.01
24620;BME280;12763;55.802;37.404;2023-04-16T09:23:17;100912.97;;;15.87;20.09
24620;BME280;12763;55.802;37.404;2023-04-16T09:25:43;100902.66;;;15.94;20.09
24620;BME280;12763;55.802;37.404;2023-04-16T09:28:09;100919.28;;;16.14;19.80
24620;BME280;12763;55.802;37.404;2023-04-16T09:30:35;100900.97;;;15.93;19.97
24620;BME280;12763;55.802;37.404;2023-04-16T09:33:15;100904.09;;;15.52;19.29
24620;BME280;12763;55.802;37.404;2023-04-16T09:35:49;100907.25;;;15.69;19.35
24620;BME280;12763;55.802;37.404;2023-04-16T09:38:16;100908.66;;;15.91;19.85
24620;BME280;12763;55.802;37.404;2023-04-16T09:40:41;100901.91;;;16.50;19.52
24620;BME280;12763;55.802;37.404;2023-04-16T09:43:16;100906.28;;;16.39;19.00
24620;BME280;12763;55.802;37.404;2023-04-16T09:45:49;100895.72;;;16.54;19.02
24620;BME280;12763;55.802;37.404;2023-04-16T09:48:15;100899.59;;;16.78;19.41
24620;BME280;12763;55.802;37.404;2023-04-16T09:50:52;100898.13;;;17.00;19.38
24620;BME280;12763;55.802;37.404;2023-04-16T09:55:52;100892.22;;;16.90;19.34
24620;BME280;12763;55.802;37.404;2023-04-16T09:58:22;100888.34;;;17.58;19.20
24620;BME280;12763;55.802;37.404;2023-04-16T10:00:54;100881.84;;;18.12;19.38
24620;BME280;12763;55.802;37.404;2023-04-16T10:03:31;100888.75;;;18.28;18.86
24620;BME280;12763;55.802;37.404;2023-04-16T10:06:23;100889.75;;;18.34;18.53
24620;BME280;12763;55.802;37.404;2023-04-16T10:08:53;100876.88;;;17.67;19.27
24620;BME280;12763;55.802;37.404;2023-04-16T10:11:22;100888.19;;;17.72;19.14
24620;BME280;12763;55.802;37.404;2023-04-16T10:13:48;100878.75;;;17.73;19.25
24620;BME280;12763;55.802;37.404;2023-04-16T10:16:15;100879.00;;;17.28;19.29
24620;BME280;12763;55.802;37.404;2023-04-16T10:18:42;100885.63;;;16.60;19.54
24620;BME280;12763;55.802;37.404;2023-04-16T10:21:08;100884.03;;;16.95;19.41
24620;BME280;12763;55.802;37.404;2023-04-16T10:23:38;100869.66;;;17.59;19.70
24620;BME280;12763;55.802;37.404;2023-04-16T10:26:05;100869.06;;;18.35;19.11
24620;BME280;12763;55.802;37.404;2023-04-16T10:28:31;100866.31;;;18.88;19.08
24620;BME280;12763;55.802;37.404;2023-04-16T10:31:02;100853.19;;;19.23;18.70
24620;BME280;12763;55.802;37.404;2023-04-16T10:33:31;100857.88;;;18.64;18.84
24620;BME280;12763;55.802;37.404;2023-04-16T10:36:14;100860.38;;;19.07;18.41
24620;BME280;12763;55.802;37.404;2023-04-16T10:38:48;100859.91;;;19.22;18.17
24620;BME280;12763;55.802;37.404;2023-04-16T10:41:15;100864.28;;;20.04;18.00
24620;BME280;12763;55.802;37.404;2023-04-16T10:43:46;100855.59;;;20.90;17.58
24620;BME280;12763;55.802;37.404;2023-04-16T10:48:49;100872.78;;;20.49;17.81
24620;BME280;12763;55.802;37.404;2023-04-16T10:51:33;100863.25;;;20.50;17.05
24620;BME280;12763;55.802;37.404;2023-04-16T10:54:18;100850.06;;;21.67;16.88
24620;BME280;12763;55.802;37.404;2023-04-16T10:56:45;100861.19;;;22.00;17.06
24620;BME280;12763;55.802;37.404;2023-04-16T10:59:17;100847.53;;;21.87;16.68
24620;BME280;12763;55.802;37.404;2023-04-16T11:01:51;100843.03;;;22.61;16.39
24620;BME280;12763;55.802;37.404;2023-04-16T11:12:37;100834.75;;;23.97;15.24
24620;BME280;12763;55.802;37.404;2023-04-16T11:15:07;100830.78;;;23.93;15.75
24620;BME280;12763;55.802;37.404;2023-04-16T11:17:45;100832.09;;;24.42;15.17
24620;BME280;12763;55.802;37.404;2023-04-16T11:22:42;100824.69;;;22.27;16.32
24620;BME280;12763;55.802;37.404;2023-04-16T11:25:09;100823.50;;;22.50;16.17
24620;BME280;12763;55.802;37.404;2023-04-16T11:27:35;100818.63;;;22.99;15.92
24620;BME280;12763;55.802;37.404;2023-04-16T11:30:06;100820.63;;;23.92;15.50
24620;BME280;12763;55.802;37.404;2023-04-16T11:32:36;100821.91;;;24.41;15.45
24620;BME280;12763;55.802;37.404;2023-04-16T11:35:06;100816.31;;;24.62;15.11
24620;BME280;12763;55.802;37.404;2023-04-16T11:37:38;100807.59;;;24.88;14.97
24620;BME280;12763;55.802;37.404;2023-04-16T11:40:05;100812.38;;;24.78;15.10
24620;BME280;12763;55.802;37.404;2023-04-16T11:42:36;100794.31;;;25.14;14.61
24620;BME280;12763;55.802;37.404;2023-04-16T11:45:06;100804.75;;;25.24;14.62
24620;BME280;12763;55.802;37.404;2023-04-16T11:47:42;100805.81;;;24.27;14.68
24620;BME280;12763;55.802;37.404;2023-04-16T11:50:28;100791.59;;;22.34;15.27
24620;BME280;12763;55.802;37.404;2023-04-16T11:52:56;100797.72;;;22.58;15.50
24620;BME280;12763;55.802;37.404;2023-04-16T11:55:22;100796.44;;;23.39;15.69
24620;BME280;12763;55.802;37.404;2023-04-16T11:57:49;100798.44;;;23.49;15.79
24620;BME280;12763;55.802;37.404;2023-04-16T12:00:15;100790.00;;;23.54;15.65
24620;BME280;12763;55.802;37.404;2023-04-16T12:02:49;100786.84;;;23.45;15.14
24620;BME280;12763;55.802;37.404;2023-04-16T12:05:35;100778.22;;;24.44;15.06
24620;BME280;12763;55.802;37.404;2023-04-16T12:08:05;100774.59;;;24.99;14.91
24620;BME280;12763;55.802;37.404;2023-04-16T12:10:33;100775.97;;;24.46;14.83
24620;BME280;12763;55.802;37.404;2023-04-16T12:13:28;100767.53;;;24.81;14.46
24620;BME280;12763;55.802;37.404;2023-04-16T12:15:55;100766.94;;;24.99;14.72
24620;BME280;12763;55.802;37.404;2023-04-16T12:18:23;100770.03;;;25.03;14.86
24620;BME280;12763;55.802;37.404;2023-04-16T12:20:50;100770.88;;;25.19;15.09
24620;BME280;12763;55.802;37.404;2023-04-16T12:23:27;100772.50;;;25.45;13.98
24620;BME280;12763;55.802;37.404;2023-04-16T12:25:55;100775.09;;;25.11;14.92
24620;BME280;12763;55.802;37.404;2023-04-16T12:30:54;100756.72;;;24.28;14.92
24620;BME280;12763;55.802;37.404;2023-04-16T12:33:20;100763.22;;;25.19;14.62
24620;BME280;12763;55.802;37.404;2023-04-16T12:35:46;100756.94;;;25.62;14.58
24620;BME280;12763;55.802;37.404;2023-04-16T12:38:12;100745.09;;;25.45;14.64
24620;BME280;12763;55.802;37.404;2023-04-16T12:40:40;100746.22;;;25.39;14.61
24620;BME280;12763;55.802;37.404;2023-04-16T12:43:06;100732.81;;;24.81;14.46
24620;BME280;12763;55.802;37.404;2023-04-16T12:45:34;100735.22;;;25.43;14.60
24620;BME280;12763;55.802;37.404;2023-04-16T12:48:00;100729.03;;;26.00;14.44
24620;BME280;12763;55.802;37.404;2023-04-16T12:50:29;100729.56;;;26.07;14.18
24620;BME280;12763;55.802;37.404;2023-04-16T12:52:55;100724.97;;;26.16;14.10
24620;BME280;12763;55.802;37.404;2023-04-16T12:55:21;100734.09;;;25.49;14.55
24620;BME280;12763;55.802;37.404;2023-04-16T12:57:48;100727.72;;;24.58;15.17
24620;BME280;12763;55.802;37.404;2023-04-16T13:00:15;100723.75;;;24.59;15.32
24620;BME280;12763;55.802;37.404;2023-04-16T13:02:41;100720.34;;;24.72;15.04
24620;BME280;12763;55.802;37.404;2023-04-16T13:05:07;100718.41;;;24.57;14.95
24620;BME280;12763;55.802;37.404;2023-04-16T13:07:33;100712.44;;;25.09;14.60